Time;durP1;ratioP1;P1;durP2;ratioP2;P2;SDS_P1;SDS_P2;PMS_P1;PMS_P2;Temp;Humidity;BMP_temperature;BMP_pressure;BME280_temperature;BME280_humidity;BME280_pressure;Samples;Min_cycle;Max_cycle;Signal;HPM_P1;HPM_P2
2021/03/11 00:01:34;;;;;;;9.83;6.60;;;24.00;87.90;;;;;;6236311;23;20174;-70
2021/03/11 00:04:00;;;;;;;15.30;6.03;;;23.90;87.80;;;;;;6236540;23;20163;-72
2021/03/11 00:06:26;;;;;;;11.60;6.17;;;23.90;87.70;;;;;;6237280;22;20237;-73
2021/03/11 00:08:51;;;;;;;12.43;6.20;;;23.90;87.70;;;;;;6209006;23;20147;-73
2021/03/11 00:11:17;;;;;;;12.90;6.37;;;23.90;87.60;;;;;;6236676;23;20175;-73
2021/03/11 00:13:42;;;;;;;10.90;5.53;;;23.90;87.60;;;;;;6210020;23;20226;-72
2021/03/11 00:16:09;;;;;;;10.13;6.10;;;23.90;87.50;;;;;;6236813;22;20310;-74
2021/03/11 00:18:34;;;;;;;10.43;6.47;;;23.90;87.50;;;;;;6209983;23;20191;-70
2021/03/11 00:21:00;;;;;;;9.53;5.40;;;23.90;87.40;;;;;;6209511;23;20703;-70
2021/03/11 00:23:26;;;;;;;11.30;5.67;;;23.90;87.40;;;;;;6236333;23;20600;-72
2021/03/11 00:25:51;;;;;;;11.17;5.67;;;23.90;87.30;;;;;;6209582;23;20186;-73
2021/03/11 00:28:17;;;;;;;8.80;6.00;;;23.90;87.30;;;;;;6235954;23;20148;-71
2021/03/11 00:30:42;;;;;;;9.40;5.40;;;23.90;87.30;;;;;;6209703;23;20209;-72
2021/03/11 00:33:08;;;;;;;11.23;5.70;;;23.90;87.20;;;;;;6236883;23;20344;-73
2021/03/11 00:35:34;;;;;;;9.27;5.60;;;23.90;87.20;;;;;;6236486;22;20682;-73
2021/03/11 00:37:59;;;;;;;9.60;5.20;;;23.90;87.20;;;;;;6236370;23;20217;-69
2021/03/11 00:40:25;;;;;;;10.73;5.07;;;23.90;87.20;;;;;;6235449;23;20174;-70
2021/03/11 00:42:51;;;;;;;9.63;5.20;;;23.90;87.10;;;;;;6236834;23;20237;-73
2021/03/11 00:45:17;;;;;;;8.73;5.30;;;23.90;87.10;;;;;;6234648;22;20521;-70
2021/03/11 00:47:44;;;;;;;10.50;6.13;;;23.90;87.10;;;;;;6208261;23;20327;-73
2021/03/11 00:50:19;;;;;;;9.53;5.67;;;23.90;87.00;;;;;;6236668;23;20428;-70
2021/03/11 00:52:44;;;;;;;9.20;5.00;;;23.90;87.10;;;;;;6235771;23;20936;-72
2021/03/11 00:55:12;;;;;;;8.30;5.20;;;23.80;86.70;;;;;;6209508;23;20436;-72
2021/03/11 00:57:38;;;;;;;11.50;5.37;;;23.90;87.70;;;;;;6236013;23;20175;-72
2021/03/11 01:00:06;;;;;;;10.00;6.27;;;23.80;86.80;;;;;;6236158;23;20420;-73
2021/03/11 01:02:32;;;;;;;8.40;5.40;;;23.80;86.70;;;;;;6236610;23;20717;-72
2021/03/11 01:04:58;;;;;;;6.23;4.67;;;23.80;86.70;;;;;;6235190;22;20539;-74
2021/03/11 01:07:24;;;;;;;6.83;4.80;;;23.80;86.70;;;;;;6236300;23;20519;-74
2021/03/11 01:09:49;;;;;;;8.60;4.70;;;23.80;86.60;;;;;;6235783;23;20151;-73
2021/03/11 01:12:15;;;;;;;10.00;5.37;;;23.80;86.60;;;;;;6236024;23;20378;-74
2021/03/11 01:14:42;;;;;;;6.23;4.53;;;23.80;86.60;;;;;;6234529;22;20704;-72
2021/03/11 01:17:08;;;;;;;9.70;5.83;;;23.80;86.60;;;;;;6208364;23;20421;-73
2021/03/11 01:19:34;;;;;;;7.70;4.80;;;23.80;86.60;;;;;;6209753;23;20864;-73
2021/03/11 01:22:01;;;;;;;9.73;5.20;;;23.80;86.50;;;;;;6235854;23;20371;-73
2021/03/11 01:24:26;;;;;;;8.00;4.97;;;23.80;86.50;;;;;;6235448;23;20421;-72
2021/03/11 01:26:52;;;;;;;9.37;4.67;;;23.80;86.40;;;;;;6236194;22;20402;-72
2021/03/11 01:29:17;;;;;;;8.60;5.50;;;23.80;86.50;;;;;;6235208;23;20151;-72
2021/03/11 01:31:43;;;;;;;7.67;5.03;;;23.80;86.40;;;;;;6236662;23;20151;-73
2021/03/11 01:34:09;;;;;;;10.77;5.30;;;23.80;86.30;;;;;;6235134;23;20155;-73
2021/03/11 01:36:34;;;;;;;7.47;4.37;;;23.80;86.30;;;;;;6235891;22;20171;-72
2021/03/11 01:39:00;;;;;;;7.30;4.90;;;23.80;86.30;;;;;;6208763;23;20227;-72
2021/03/11 01:41:26;;;;;;;8.17;4.53;;;23.80;86.30;;;;;;6235285;23;20138;-72
2021/03/11 01:43:57;;;;;;;8.37;5.07;;;23.80;86.20;;;;;;6235287;23;20170;-72
2021/03/11 01:46:25;;;;;;;7.20;5.20;;;23.80;86.20;;;;;;6235661;22;20167;-74
2021/03/11 01:48:51;;;;;;;7.77;4.60;;;23.80;86.20;;;;;;6235366;23;20424;-73
2021/03/11 01:51:18;;;;;;;8.37;5.40;;;23.80;86.20;;;;;;6236054;23;20869;-72
2021/03/11 01:53:45;;;;;;;10.63;4.53;;;23.80;86.10;;;;;;6207929;23;20409;-71
2021/03/11 01:56:11;;;;;;;6.53;4.20;;;23.80;86.10;;;;;;6235616;22;20390;-71
2021/03/11 01:58:38;;;;;;;10.00;5.17;;;23.80;86.10;;;;;;6208193;23;20428;-73
2021/03/11 02:01:03;;;;;;;8.53;4.87;;;23.80;86.10;;;;;;6208829;23;20366;-73
2021/03/11 02:03:29;;;;;;;8.60;4.50;;;23.80;86.00;;;;;;6236184;23;20614;-73
2021/03/11 02:05:55;;;;;;;7.40;3.93;;;23.70;85.90;;;;;;6234240;22;20225;-71
2021/03/11 02:08:21;;;;;;;10.00;4.60;;;23.80;86.00;;;;;;6235272;23;20370;-71
2021/03/11 02:10:47;;;;;;;8.80;4.47;;;23.80;86.00;;;;;;6208983;23;20234;-73
2021/03/11 02:13:39;;;;;;;12.57;4.43;;;23.80;85.90;;;;;;6235404;23;20617;-72
2021/03/11 02:16:26;;;;;;;6.73;5.10;;;23.70;86.70;;;;;;6234905;22;20405;-72
2021/03/11 02:19:14;;;;;;;8.60;4.60;;;23.70;85.90;;;;;;6234943;23;20394;-72
2021/03/11 02:21:44;;;;;;;7.07;4.30;;;23.70;85.80;;;;;;6233994;23;20374;-73
2021/03/11 02:24:44;;;;;;;7.10;4.60;;;23.70;85.80;;;;;;6234176;23;20893;-73
2021/03/11 02:27:32;;;;;;;6.10;4.10;;;23.70;85.80;;;;;;6234570;23;20446;-72
2021/03/11 02:29:58;;;;;;;7.80;4.47;;;23.70;85.80;;;;;;6233613;23;20354;-72
2021/03/11 02:32:26;;;;;;;6.50;4.40;;;23.70;85.80;;;;;;6207817;23;20378;-72
2021/03/11 02:34:59;;;;;;;8.37;4.53;;;23.70;85.80;;;;;;6233793;22;20478;-72
2021/03/11 02:37:37;;;;;;;6.60;3.83;;;23.70;85.80;;;;;;6234053;23;20928;-72
2021/03/11 02:40:15;;;;;;;5.87;4.63;;;23.70;85.80;;;;;;6208132;23;20924;-72
2021/03/11 02:42:41;;;;;;;10.60;4.50;;;23.70;85.70;;;;;;6232806;23;20719;-72
2021/03/11 02:45:10;;;;;;;6.60;4.27;;;23.70;85.70;;;;;;6233430;22;20400;-74
2021/03/11 02:47:38;;;;;;;5.17;4.40;;;23.70;85.70;;;;;;6232355;23;20719;-73
2021/03/11 02:50:05;;;;;;;6.83;4.10;;;23.70;86.50;;;;;;6233398;23;20852;-73
2021/03/11 02:52:32;;;;;;;5.87;4.07;;;23.70;85.60;;;;;;6233259;23;20707;-71
2021/03/11 02:55:00;;;;;;;5.43;3.80;;;23.70;85.60;;;;;;6181607;23;20410;-73
2021/03/11 02:57:27;;;;;;;6.57;3.83;;;23.70;85.50;;;;;;6233544;23;20444;-73
2021/03/11 02:59:53;;;;;;;10.97;5.53;;;23.70;85.50;;;;;;6233678;23;20406;-75
2021/03/11 03:02:19;;;;;;;5.50;3.90;;;23.70;85.50;;;;;;6233282;23;20413;-74
2021/03/11 03:04:48;;;;;;;6.03;4.40;;;23.70;85.50;;;;;;6234439;22;20846;-74
2021/03/11 03:07:17;;;;;;;6.07;4.20;;;23.70;85.60;;;;;;6236222;23;20374;-73
2021/03/11 03:09:46;;;;;;;6.37;3.70;;;23.70;85.50;;;;;;6235513;23;20377;-71
2021/03/11 03:12:12;;;;;;;6.87;4.27;;;23.70;85.50;;;;;;6235965;23;20939;-73
2021/03/11 03:14:40;;;;;;;7.53;4.10;;;23.70;85.50;;;;;;6234806;22;20377;-72
2021/03/11 03:17:07;;;;;;;6.03;4.13;;;23.70;85.50;;;;;;6236416;23;20500;-71
2021/03/11 03:19:33;;;;;;;6.57;3.80;;;23.70;85.50;;;;;;6236004;23;20471;-72
2021/03/11 03:21:59;;;;;;;5.03;4.00;;;23.70;85.50;;;;;;6234575;23;20880;-72
2021/03/11 03:24:25;;;;;;;5.23;3.90;;;23.60;85.30;;;;;;6236970;23;20449;-72
2021/03/11 03:26:51;;;;;;;8.07;4.10;;;23.70;85.50;;;;;;6208619;23;20503;-71
2021/03/11 03:29:16;;;;;;;5.20;3.43;;;23.70;85.50;;;;;;6234458;23;20384;-72
2021/03/11 03:31:42;;;;;;;5.97;4.10;;;23.70;85.40;;;;;;6235762;23;20234;-73
2021/03/11 03:34:08;;;;;;;10.53;5.00;;;23.60;85.30;;;;;;6235021;23;20182;-71
2021/03/11 03:36:33;;;;;;;6.07;4.27;;;23.70;85.30;;;;;;6236450;22;20697;-73
2021/03/11 03:38:59;;;;;;;4.90;3.67;;;23.70;85.30;;;;;;6235115;23;20166;-72
2021/03/11 03:41:28;;;;;;;7.90;4.57;;;23.70;85.30;;;;;;6235576;23;20462;-74
2021/03/11 03:43:54;;;;;;;5.40;3.73;;;23.70;85.30;;;;;;6235468;23;20556;-71
2021/03/11 03:46:24;;;;;;;8.10;4.03;;;23.70;85.30;;;;;;6183268;23;20405;-73
2021/03/11 03:48:56;;;;;;;5.73;4.00;;;23.60;85.10;;;;;;6208034;23;20757;-70
2021/03/11 03:51:25;;;;;;;6.63;3.90;;;23.70;85.30;;;;;;6209584;23;20449;-73
2021/03/11 03:54:20;;;;;;;7.37;4.00;;;23.60;85.10;;;;;;6208632;23;20422;-71
2021/03/11 03:56:51;;;;;;;5.90;4.50;;;23.60;85.20;;;;;;6233875;22;20414;-74
2021/03/11 03:59:35;;;;;;;5.10;4.10;;;23.60;85.10;;;;;;6210462;23;20390;-74
2021/03/11 04:02:04;;;;;;;7.43;3.60;;;23.60;85.10;;;;;;6236975;23;20389;-73
2021/03/11 04:04:34;;;;;;;5.60;3.30;;;23.60;85.10;;;;;;6236964;23;20374;-71
2021/03/11 04:07:03;;;;;;;5.40;3.90;;;23.60;85.10;;;;;;6236543;23;20398;-70
2021/03/11 04:09:29;;;;;;;5.50;3.80;;;23.60;85.10;;;;;;6237719;23;20771;-73
2021/03/11 04:11:57;;;;;;;5.60;3.83;;;23.60;85.10;;;;;;6236771;23;20413;-72
2021/03/11 04:14:23;;;;;;;4.77;3.53;;;23.60;85.10;;;;;;6184028;23;20735;-72
2021/03/11 04:16:51;;;;;;;4.80;4.13;;;23.60;85.10;;;;;;6209935;23;20455;-72
2021/03/11 04:19:17;;;;;;;5.47;3.43;;;23.60;85.00;;;;;;6237316;23;20839;-73
2021/03/11 04:21:44;;;;;;;4.70;3.10;;;23.60;85.00;;;;;;6208619;23;20398;-70
2021/03/11 04:24:11;;;;;;;6.40;3.93;;;23.60;85.00;;;;;;6211151;23;20607;-73
2021/03/11 04:26:38;;;;;;;5.57;3.83;;;23.60;84.90;;;;;;6209181;23;20743;-72
2021/03/11 04:29:06;;;;;;;5.40;4.50;;;23.60;85.00;;;;;;6236990;23;20892;-74
2021/03/11 04:31:32;;;;;;;5.03;3.33;;;23.60;85.00;;;;;;6235886;23;20426;-74
2021/03/11 04:33:59;;;;;;;5.77;3.63;;;23.60;84.90;;;;;;6209792;23;20390;-70
2021/03/11 04:36:26;;;;;;;6.33;3.17;;;23.60;84.80;;;;;;6237163;22;20765;-73
2021/03/11 04:38:52;;;;;;;4.77;3.80;;;23.60;84.90;;;;;;6235072;23;20418;-71
2021/03/11 04:41:19;;;;;;;5.23;3.33;;;23.60;84.80;;;;;;6237195;23;20401;-75
2021/03/11 04:43:45;;;;;;;5.00;3.60;;;23.60;84.90;;;;;;6208693;23;20461;-74
2021/03/11 04:46:12;;;;;;;4.80;3.40;;;23.60;84.90;;;;;;6236144;22;20481;-74
2021/03/11 04:48:38;;;;;;;4.27;3.30;;;23.60;84.80;;;;;;6235132;23;20465;-74
2021/03/11 04:51:05;;;;;;;5.20;3.53;;;23.60;84.80;;;;;;6235625;23;20407;-72
2021/03/11 04:53:34;;;;;;;4.37;3.67;;;23.60;84.80;;;;;;6209857;23;20229;-73
2021/03/11 04:56:00;;;;;;;7.00;4.10;;;23.60;84.80;;;;;;6184563;23;20497;-70
2021/03/11 04:58:28;;;;;;;6.00;4.37;;;23.60;84.80;;;;;;6236339;23;20414;-73
2021/03/11 05:00:54;;;;;;;4.27;3.20;;;23.60;84.80;;;;;;6237068;23;20423;-73
2021/03/11 05:03:21;;;;;;;5.97;4.20;;;23.50;84.70;;;;;;6235709;23;20718;-73
2021/03/11 05:05:46;;;;;;;4.80;3.70;;;23.60;84.80;;;;;;6236016;22;20401;-73
2021/03/11 05:08:12;;;;;;;8.90;3.73;;;23.50;84.70;;;;;;6236299;23;20378;-72
2021/03/11 05:10:40;;;;;;;4.37;3.40;;;23.50;84.60;;;;;;6235787;23;20226;-72
2021/03/11 05:13:07;;;;;;;5.20;3.70;;;23.50;84.60;;;;;;6237083;23;20375;-70
2021/03/11 05:15:32;;;;;;;7.17;3.37;;;23.60;84.70;;;;;;6235153;22;20412;-72
2021/03/11 05:17:58;;;;;;;4.13;3.13;;;23.60;84.70;;;;;;6235470;23;20609;-69
2021/03/11 05:20:25;;;;;;;5.70;3.30;;;23.60;84.60;;;;;;6237202;23;20198;-73
2021/03/11 05:22:52;;;;;;;4.57;3.63;;;23.60;84.60;;;;;;6209080;23;20155;-73
2021/03/11 05:25:18;;;;;;;5.10;3.33;;;23.60;84.60;;;;;;6236034;22;20382;-74
2021/03/11 05:27:43;;;;;;;5.00;3.50;;;23.60;84.60;;;;;;6235396;23;20397;-70
2021/03/11 05:30:11;;;;;;;3.47;3.10;;;23.60;84.60;;;;;;6236342;23;20179;-72
2021/03/11 05:32:38;;;;;;;4.50;3.67;;;23.60;84.60;;;;;;6236208;23;20155;-74
2021/03/11 05:35:05;;;;;;;4.60;3.33;;;23.60;84.50;;;;;;6235510;22;20394;-74
2021/03/11 05:37:31;;;;;;;4.30;3.20;;;23.60;84.50;;;;;;6208666;23;20430;-73
2021/03/11 05:39:58;;;;;;;3.90;3.10;;;23.60;84.50;;;;;;6235913;23;20391;-74
2021/03/11 05:42:24;;;;;;;4.20;3.33;;;23.60;84.50;;;;;;6234829;23;20170;-73
2021/03/11 05:44:52;;;;;;;5.30;4.07;;;23.60;84.50;;;;;;6235652;22;20424;-74
2021/03/11 05:47:18;;;;;;;5.90;3.43;;;23.60;84.50;;;;;;6209178;23;20750;-75
2021/03/11 05:49:44;;;;;;;5.60;3.60;;;23.60;84.40;;;;;;6236813;23;20371;-74
2021/03/11 05:52:13;;;;;;;4.53;3.80;;;23.60;84.40;;;;;;6235600;23;20988;-74
2021/03/11 05:54:40;;;;;;;6.63;3.47;;;23.60;84.40;;;;;;6234791;22;20409;-74
2021/03/11 05:57:06;;;;;;;5.40;3.57;;;23.60;84.40;;;;;;6235655;23;20807;-74
2021/03/11 05:59:33;;;;;;;4.63;3.30;;;23.60;84.40;;;;;;6208645;23;20717;-73
2021/03/11 06:02:07;;;;;;;5.00;3.37;;;23.60;84.40;;;;;;6209653;23;20374;-72
2021/03/11 06:04:36;;;;;;;4.90;3.30;;;23.60;84.40;;;;;;6236044;22;20775;-73
2021/03/11 06:07:05;;;;;;;3.33;3.03;;;23.60;84.40;;;;;;6236165;23;20370;-73
2021/03/11 06:09:31;;;;;;;3.77;3.20;;;23.60;84.30;;;;;;6235636;23;20472;-74
2021/03/11 06:11:58;;;;;;;4.90;3.23;;;23.60;84.30;;;;;;6207935;23;20723;-71
2021/03/11 06:14:26;;;;;;;3.70;3.10;;;23.60;84.20;;;;;;6235453;23;20386;-74
2021/03/11 06:17:06;;;;;;;7.37;3.60;;;23.60;84.30;;;;;;6208915;23;20797;-70
2021/03/11 06:19:33;;;;;;;5.23;3.97;;;23.60;85.10;;;;;;6234729;23;20373;-72
2021/03/11 06:21:59;;;;;;;4.37;3.20;;;23.60;84.20;;;;;;6235510;23;20374;-71
2021/03/11 06:24:25;;;;;;;4.23;3.13;;;23.60;84.10;;;;;;6235396;23;20416;-73
2021/03/11 06:26:50;;;;;;;4.77;3.23;;;23.60;84.10;;;;;;6208510;23;20406;-72
2021/03/11 06:29:17;;;;;;;3.10;2.57;;;23.60;84.10;;;;;;6236373;23;20150;-72
2021/03/11 06:31:43;;;;;;;3.53;3.07;;;23.60;84.00;;;;;;6235522;23;20498;-74
2021/03/11 06:34:19;;;;;;;4.23;3.50;;;23.60;84.00;;;;;;6232236;23;20877;-73
2021/03/11 06:36:45;;;;;;;6.40;2.83;;;23.60;84.00;;;;;;6234406;22;20394;-72
2021/03/11 06:39:23;;;;;;;3.63;2.90;;;23.60;83.90;;;;;;6235916;23;20693;-73
2021/03/11 06:41:49;;;;;;;3.77;2.60;;;23.60;84.00;;;;;;6236754;23;20377;-71
2021/03/11 06:44:15;;;;;;;5.67;2.80;;;23.60;83.90;;;;;;6236221;23;21011;-71
2021/03/11 06:46:57;;;;;;;3.90;2.60;;;23.60;83.90;;;;;;6209982;23;20476;-74
2021/03/11 06:49:23;;;;;;;4.00;3.10;;;23.60;83.90;;;;;;6235505;23;20194;-73
2021/03/11 06:52:06;;;;;;;3.77;3.13;;;23.60;83.90;;;;;;6236185;23;20378;-73
2021/03/11 06:55:15;;;;;;;2.67;2.40;;;23.60;83.70;;;;;;6237088;22;20445;-72
2021/03/11 06:57:41;;;;;;;3.73;3.00;;;23.60;83.80;;;;;;6232794;23;20425;-73
2021/03/11 07:00:21;;;;;;;3.97;2.73;;;23.60;83.70;;;;;;6236965;23;20432;-73
2021/03/11 07:02:57;;;;;;;3.83;2.83;;;23.60;83.70;;;;;;6161584;23;20469;-73
2021/03/11 07:05:25;;;;;;;3.40;2.87;;;23.60;83.60;;;;;;6236997;22;20685;-73
2021/03/11 07:08:22;;;;;;;4.67;3.90;;;23.60;83.60;;;;;;6236876;23;20921;-74
2021/03/11 07:10:48;;;;;;;7.30;3.03;;;23.60;83.50;;;;;;6237721;23;20369;-73
2021/03/11 07:13:14;;;;;;;5.03;3.17;;;23.60;83.40;;;;;;6237005;23;20468;-72
2021/03/11 07:15:41;;;;;;;3.53;2.87;;;23.60;83.50;;;;;;6210466;23;20322;-73
2021/03/11 07:18:10;;;;;;;3.43;2.93;;;23.60;83.50;;;;;;6237602;23;20503;-73
2021/03/11 07:20:36;;;;;;;6.10;3.23;;;23.60;83.70;;;;;;6213160;23;20715;-72
2021/03/11 07:23:09;;;;;;;3.87;2.87;;;23.60;84.60;;;;;;6238348;23;20373;-76
2021/03/11 07:25:48;;;;;;;4.50;3.10;;;23.60;86.30;;;;;;6211436;23;21014;-73
2021/03/11 07:28:29;;;;;;;3.83;2.63;;;23.60;87.50;;;;;;6190741;23;20573;-75
2021/03/11 07:31:00;;;;;;;3.30;2.70;;;23.60;88.60;;;;;;6184731;23;20265;-72
2021/03/11 07:33:28;;;;;;;4.13;2.43;;;23.60;89.00;;;;;;6237458;23;20826;-71
2021/03/11 07:36:02;;;;;;;3.97;2.97;;;23.60;89.20;;;;;;6237622;22;20491;-72
2021/03/11 07:38:30;;;;;;;4.27;3.00;;;23.70;90.00;;;;;;6211049;23;20527;-76
2021/03/11 07:41:01;;;;;;;3.53;2.67;;;23.70;90.00;;;;;;6193301;23;20425;-76
2021/03/11 07:43:29;;;;;;;3.53;2.80;;;23.70;90.00;;;;;;6209850;23;20590;-74
2021/03/11 07:45:56;;;;;;;3.67;2.87;;;23.70;90.10;;;;;;6210996;23;20461;-73
2021/03/11 07:48:22;;;;;;;2.37;2.17;;;23.70;90.20;;;;;;6236455;23;20869;-73
2021/03/11 07:50:49;;;;;;;6.50;3.17;;;23.80;90.30;;;;;;6220291;22;20459;-75
2021/03/11 07:53:49;;;;;;;3.13;2.50;;;23.80;90.40;;;;;;6237833;23;20381;-77
2021/03/11 07:56:16;;;;;;;4.43;2.83;;;23.80;90.50;;;;;;6207974;23;20406;-77
2021/03/11 07:58:42;;;;;;;6.77;2.87;;;23.80;90.40;;;;;;6237729;23;20505;-74
2021/03/11 08:01:09;;;;;;;2.77;2.40;;;23.80;90.20;;;;;;6237706;23;20370;-74
2021/03/11 08:03:37;;;;;;;4.53;2.77;;;23.80;90.00;;;;;;6210804;23;20461;-73
2021/03/11 08:06:29;;;;;;;4.97;3.00;;;23.80;89.80;;;;;;6211292;23;20956;-75
2021/03/11 08:08:56;;;;;;;4.93;3.40;;;23.80;89.60;;;;;;6234534;23;20390;-74
2021/03/11 08:11:39;;;;;;;7.03;2.70;;;23.80;89.30;;;;;;6237780;23;20374;-74
2021/03/11 08:14:23;;;;;;;4.20;2.57;;;23.70;89.10;;;;;;6238062;23;20373;-76
2021/03/11 08:16:49;;;;;;;3.40;2.80;;;23.70;89.00;;;;;;6236678;22;20401;-74
2021/03/11 08:19:34;;;;;;;3.03;2.70;;;23.70;88.80;;;;;;6236965;23;20844;-75
2021/03/11 08:21:59;;;;;;;5.23;3.37;;;23.70;88.80;;;;;;6238249;23;20366;-75
2021/03/11 08:24:40;;;;;;;8.23;2.80;;;23.70;88.70;;;;;;6238152;23;20375;-73
2021/03/11 08:27:30;;;;;;;3.67;2.67;;;23.70;88.80;;;;;;6214041;23;20166;-74
2021/03/11 08:29:57;;;;;;;4.60;3.10;;;23.70;90.00;;;;;;6238582;23;20762;-74
2021/03/11 08:32:48;;;;;;;3.60;2.60;;;23.80;90.10;;;;;;6234344;23;20394;-73
2021/03/11 08:35:37;;;;;;;4.73;2.60;;;23.80;90.30;;;;;;6237106;22;20735;-77
2021/03/11 08:38:27;;;;;;;4.10;3.30;;;23.70;90.50;;;;;;6237721;23;20413;-76
2021/03/11 08:41:14;;;;;;;7.13;2.70;;;23.80;90.60;;;;;;6211032;23;20390;-74
2021/03/11 08:43:40;;;;;;;4.37;2.70;;;23.80;91.10;;;;;;6185747;23;20434;-75
2021/03/11 08:46:13;;;;;;;2.90;2.47;;;23.80;90.70;;;;;;6239045;22;20909;-76
2021/03/11 08:49:00;;;;;;;4.10;2.20;;;23.80;90.70;;;;;;6209331;23;20619;-74
2021/03/11 08:51:37;;;;;;;5.00;2.53;;;23.80;90.70;;;;;;6239171;23;20359;-75
2021/03/11 08:54:08;;;;;;;5.82;2.58;;;23.80;90.70;;;;;;6184318;23;20466;-73
2021/03/11 08:56:38;;;;;;;4.00;2.40;;;23.80;90.80;;;;;;6210499;23;20179;-72
2021/03/11 08:59:18;;;;;;;4.23;2.50;;;23.90;90.60;;;;;;6238965;23;20544;-75
2021/03/11 09:01:46;;;;;;;3.23;2.60;;;24.00;90.40;;;;;;6210636;23;20389;-74
2021/03/11 09:07:30;;;;;;;4.43;2.60;;;24.00;90.30;;;;;;6179727;23;20730;-73
2021/03/11 09:09:57;;;;;;;3.47;2.70;;;24.00;90.30;;;;;;6238025;23;20378;-71
2021/03/11 09:12:43;;;;;;;4.30;2.60;;;24.00;90.20;;;;;;6210583;23;20492;-71
2021/03/11 09:15:10;;;;;;;3.70;2.63;;;24.00;90.20;;;;;;6235940;22;20452;-73
2021/03/11 09:17:41;;;;;;;2.70;2.30;;;24.00;90.20;;;;;;6211442;23;20964;-74
2021/03/11 09:20:15;;;;;;;5.43;2.40;;;24.00;90.10;;;;;;6212976;23;20455;-74
2021/03/11 09:22:47;;;;;;;3.50;2.43;;;24.00;90.10;;;;;;6212866;23;20378;-73
2021/03/11 09:25:25;;;;;;;3.97;2.70;;;24.00;90.00;;;;;;6238409;22;20386;-74
2021/03/11 09:27:58;;;;;;;3.10;2.40;;;24.00;90.00;;;;;;6238343;23;20816;-74
2021/03/11 09:30:32;;;;;;;3.90;2.57;;;24.00;90.00;;;;;;6212706;23;20396;-74
2021/03/11 09:33:08;;;;;;;3.30;2.77;;;24.00;89.90;;;;;;6213044;23;20416;-74
2021/03/11 09:35:33;;;;;;;4.10;3.23;;;24.00;89.70;;;;;;6240435;22;20408;-74
2021/03/11 09:38:11;;;;;;;4.03;3.00;;;24.00;89.60;;;;;;6214080;23;20509;-73
2021/03/11 09:40:42;;;;;;;3.03;2.37;;;24.00;89.40;;;;;;6212506;23;20174;-74
2021/03/11 09:44:02;;;;;;;6.07;2.50;;;24.00;89.30;;;;;;6212453;23;20378;-75
2021/03/11 09:46:28;;;;;;;3.20;2.80;;;24.00;89.30;;;;;;6240235;22;20405;-71
2021/03/11 09:48:58;;;;;;;3.67;2.70;;;24.00;89.10;;;;;;6240292;23;20465;-74
2021/03/11 09:51:48;;;;;;;6.10;3.00;;;24.00;89.10;;;;;;6241477;23;20289;-73
2021/03/11 09:54:17;;;;;;;4.10;2.70;;;24.00;89.10;;;;;;6209212;23;20384;-74
2021/03/11 09:56:45;;;;;;;4.90;2.57;;;24.10;89.30;;;;;;6237491;22;20179;-75
2021/03/11 09:59:43;;;;;;;2.50;2.30;;;24.10;89.10;;;;;;6237672;23;20469;-76
2021/03/11 10:02:10;;;;;;;3.83;2.73;;;24.10;88.90;;;;;;6235388;23;20367;-74
2021/03/11 10:04:47;;;;;;;2.50;2.30;;;24.10;88.80;;;;;;6235548;22;20730;-75
2021/03/11 10:07:14;;;;;;;8.20;2.50;;;24.10;88.80;;;;;;6210926;23;20709;-75
2021/03/11 10:13:41;;;;;;;3.07;2.53;;;24.10;88.80;;;;;;6185019;23;21152;-74
2021/03/11 10:16:08;;;;;;;3.60;2.60;;;24.00;88.80;;;;;;6209791;23;20453;-75
2021/03/11 10:19:16;;;;;;;5.43;2.53;;;24.00;88.80;;;;;;6185296;23;20430;-75
2021/03/11 10:25:17;;;;;;;3.10;2.27;;;24.00;88.90;;;;;;6173107;23;20488;-75
2021/03/11 10:28:32;;;;;;;8.13;3.10;;;24.00;89.00;;;;;;6147926;23;20497;-76
2021/03/11 10:37:01;;;;;;;3.03;2.27;;;24.00;89.50;;;;;;6263253;22;20448;-86
2021/03/11 10:39:28;;;;;;;3.50;2.10;;;23.90;90.20;;;;;;6213371;23;20382;-85
2021/03/11 10:42:05;;;;;;;4.47;2.70;;;24.00;89.90;;;;;;6211415;23;20382;-85
2021/03/11 10:44:36;;;;;;;6.37;2.40;;;24.00;90.10;;;;;;6211925;23;20370;-84
2021/03/11 10:47:14;;;;;;;3.70;2.27;;;23.90;90.10;;;;;;6212089;23;20974;-85
2021/03/11 10:49:42;;;;;;;2.90;2.50;;;24.00;90.20;;;;;;6186789;23;20447;-85
2021/03/11 10:52:09;;;;;;;2.57;2.13;;;24.00;90.20;;;;;;6214279;23;20393;-84
2021/03/11 10:58:14;;;;;;;4.20;2.90;;;24.00;90.30;;;;;;6239371;22;20475;-86
2021/03/11 11:00:45;;;;;;;4.50;2.47;;;24.00;90.30;;;;;;6190076;23;20417;-85
2021/03/11 11:03:26;;;;;;;2.90;2.40;;;23.90;90.30;;;;;;6227261;23;20416;-84
2021/03/11 11:05:55;;;;;;;3.73;2.60;;;23.90;90.30;;;;;;6210858;23;20393;-88
2021/03/11 11:25:54;;;;;;;5.30;3.47;;;23.90;91.40;;;;;;6235307;23;20373;-86
2021/03/11 12:06:13;;;;;;;3.60;2.50;;;23.90;92.20;;;;;;6159415;23;20876;-88
2021/03/11 12:08:58;;;;;;;3.20;2.20;;;23.90;92.40;;;;;;6174297;23;20459;-86
2021/03/11 12:11:33;;;;;;;;;;;;;;;;;;;;;
2021/03/11 12:14:01;;;;;;;3.83;2.28;;;24.00;92.60;;;;;;6234938;23;20781;-84
2021/03/11 12:16:26;;;;;;;4.83;2.20;;;24.00;92.90;;;;;;6208955;23;20160;-84
2021/03/11 12:18:52;;;;;;;2.83;2.63;;;24.00;92.80;;;;;;6236187;23;21123;-84
2021/03/11 12:21:18;;;;;;;2.27;2.07;;;24.10;92.70;;;;;;6235570;23;20160;-83
2021/03/11 12:23:44;;;;;;;2.90;2.00;;;24.10;92.50;;;;;;6235370;23;20204;-87
2021/03/11 12:26:12;;;;;;;2.00;1.80;;;24.10;92.40;;;;;;6209603;23;20463;-86
2021/03/11 12:28:38;;;;;;;3.13;2.47;;;24.10;92.30;;;;;;6183458;23;21135;-84
2021/03/11 12:31:04;;;;;;;4.30;2.30;;;24.10;92.30;;;;;;6184541;23;20400;-82
2021/03/11 12:33:30;;;;;;;2.87;2.50;;;24.10;92.30;;;;;;6185566;23;20168;-82
2021/03/11 12:35:56;;;;;;;2.43;2.23;;;24.10;92.20;;;;;;6236436;23;20862;-83
2021/03/11 12:38:22;;;;;;;3.43;2.33;;;24.10;92.10;;;;;;6238309;22;20428;-81
2021/03/11 12:40:48;;;;;;;3.30;2.20;;;24.10;92.00;;;;;;6219648;23;20254;-85
2021/03/11 12:43:18;;;;;;;5.03;3.97;;;24.10;91.90;;;;;;6185506;23;20409;-87
2021/03/11 12:45:57;;;;;;;7.17;3.63;;;24.20;92.00;;;;;;6238838;23;20484;-84
2021/03/11 12:48:23;;;;;;;11.57;4.93;;;24.20;92.20;;;;;;6185808;23;20425;-83
2021/03/11 12:50:49;;;;;;;7.13;3.90;;;24.20;92.60;;;;;;6223660;22;20402;-86
2021/03/11 12:53:53;;;;;;;6.90;4.00;;;24.20;92.30;;;;;;6232263;23;20151;-86
2021/03/11 12:56:22;;;;;;;9.60;6.10;;;24.20;92.30;;;;;;6209063;23;20389;-84
2021/03/11 12:58:51;;;;;;;12.60;6.07;;;24.20;92.40;;;;;;6209160;23;20450;-84
2021/03/11 13:01:17;;;;;;;10.70;6.27;;;24.20;92.50;;;;;;6197608;23;20517;-85
2021/03/11 13:03:43;;;;;;;17.23;7.27;;;24.30;92.70;;;;;;6209476;23;20413;-84
2021/03/11 13:06:08;;;;;;;10.37;6.03;;;24.30;92.70;;;;;;6209576;23;20190;-82
2021/03/11 13:08:34;;;;;;;10.17;5.80;;;24.30;92.70;;;;;;6236612;22;20195;-84
2021/03/11 13:11:00;;;;;;;12.47;6.20;;;24.30;92.70;;;;;;6225005;22;20273;-83
2021/03/11 13:13:26;;;;;;;12.30;7.80;;;24.30;92.60;;;;;;6236978;23;20601;-82
2021/03/11 13:15:57;;;;;;;13.33;6.00;;;24.30;92.60;;;;;;6234029;23;20516;-86
2021/03/11 13:18:23;;;;;;;8.50;5.00;;;24.30;92.60;;;;;;6236336;22;20481;-85
2021/03/11 13:20:52;;;;;;;9.50;5.70;;;24.40;92.80;;;;;;6197302;23;20442;-85
2021/03/11 13:23:20;;;;;;;7.83;5.13;;;24.40;92.80;;;;;;6185551;23;20170;-85
2021/03/11 13:25:46;;;;;;;12.20;6.43;;;24.40;92.90;;;;;;6184428;23;20397;-84
2021/03/11 13:28:12;;;;;;;9.53;5.07;;;24.40;92.90;;;;;;6210391;23;20418;-86
2021/03/11 13:30:42;;;;;;;8.60;6.00;;;24.40;92.90;;;;;;6224207;22;20182;-86
2021/03/11 13:33:09;;;;;;;8.80;4.97;;;24.30;92.90;;;;;;6185714;23;20170;-86
2021/03/11 13:35:35;;;;;;;9.57;4.87;;;24.30;93.00;;;;;;6237676;23;20374;-85
2021/03/11 13:38:01;;;;;;;5.80;4.40;;;24.30;93.00;;;;;;6237957;22;20422;-85
2021/03/11 13:40:36;;;;;;;7.40;4.73;;;24.30;93.10;;;;;;6200179;23;20413;-86
2021/03/11 13:43:02;;;;;;;8.20;4.80;;;24.30;93.10;;;;;;6210412;23;20850;-86
2021/03/11 13:45:29;;;;;;;7.57;4.43;;;24.30;93.20;;;;;;6237784;23;20381;-86
2021/03/11 13:47:55;;;;;;;7.63;4.27;;;24.30;93.10;;;;;;6210726;23;20912;-87
2021/03/11 13:50:21;;;;;;;8.73;4.93;;;24.30;93.10;;;;;;6202923;23;20432;-84
2021/03/11 13:52:47;;;;;;;9.17;5.20;;;24.20;93.10;;;;;;6207062;23;20421;-87
2021/03/11 13:55:14;;;;;;;7.93;3.80;;;24.30;93.10;;;;;;6210530;23;20382;-85
2021/03/11 13:57:40;;;;;;;5.10;3.60;;;24.20;93.00;;;;;;6237022;22;20179;-85
2021/03/11 14:00:08;;;;;;;5.57;4.50;;;24.20;93.00;;;;;;6228269;22;20481;-85
2021/03/11 14:02:36;;;;;;;6.03;4.00;;;24.20;93.00;;;;;;6233360;23;20714;-86
2021/03/11 14:05:04;;;;;;;6.50;4.50;;;24.20;93.00;;;;;;6211176;23;21020;-85
2021/03/11 14:07:30;;;;;;;4.03;3.60;;;24.20;93.00;;;;;;6210397;23;20461;-86
2021/03/11 14:10:02;;;;;;;5.87;4.10;;;24.20;93.00;;;;;;6233205;22;20410;-86
2021/03/11 14:12:28;;;;;;;6.00;3.83;;;24.20;92.90;;;;;;6234090;23;20178;-85
2021/03/11 14:14:54;;;;;;;5.97;3.80;;;24.20;92.90;;;;;;6237758;23;20385;-84
2021/03/11 14:17:20;;;;;;;6.00;4.13;;;24.20;92.90;;;;;;6210456;23;20210;-84
2021/03/11 14:19:46;;;;;;;6.33;4.20;;;24.20;92.90;;;;;;6206290;23;20213;-84